Terminal Aerodrome Forecast
Issued by NWS

Home | Current Version | Previous Version | Graphics & Text | Print | Product List | Glossary On
Versions: 1 2 3 4 5 6 7 8 9 10 11 12 13 14
000
FTUS43 KMPX 271722
TAFRNH
TAF
KRNH 271722Z 2718/2818 14009KT P6SM SCT050
     FM281000 13007KT P6SM VCTS BKN050CB
      TEMPO 2811/2814 5SM -TSRA BKN035CB
     FM281400 14012KT P6SM BKN020=

USA.gov is the U.S. government's official web portal to all federal, state and local government web resources and services.